sensor_id;sensor_type;location;lat;lon;timestamp;P1;durP1;ratioP1;P2;durP2;ratioP2
48076;SDS011;33854;57.708;12.008;2023-02-18T00:01:37;24.25;;;3.03;;
48076;SDS011;33854;57.708;12.008;2023-02-18T00:04:02;20.53;;;3.00;;
48076;SDS011;33854;57.708;12.008;2023-02-18T00:06:29;19.20;;;2.83;;
48076;SDS011;33854;57.708;12.008;2023-02-18T00:08:57;25.98;;;3.17;;
48076;SDS011;33854;57.708;12.008;2023-02-18T00:11:26;20.88;;;3.00;;
48076;SDS011;33854;57.708;12.008;2023-02-18T00:13:54;18.63;;;2.40;;
48076;SDS011;33854;57.708;12.008;2023-02-18T00:16:22;14.48;;;2.30;;
48076;SDS011;33854;57.708;12.008;2023-02-18T00:18:49;18.58;;;3.30;;
48076;SDS011;33854;57.708;12.008;2023-02-18T00:21:15;12.50;;;1.95;;
48076;SDS011;33854;57.708;12.008;2023-02-18T00:23:41;14.43;;;2.45;;
48076;SDS011;33854;57.708;12.008;2023-02-18T00:26:10;23.90;;;2.70;;
48076;SDS011;33854;57.708;12.008;2023-02-18T00:28:37;13.25;;;2.22;;
48076;SDS011;33854;57.708;12.008;2023-02-18T00:31:11;20.33;;;2.92;;
48076;SDS011;33854;57.708;12.008;2023-02-18T00:33:41;19.08;;;2.47;;
48076;SDS011;33854;57.708;12.008;2023-02-18T00:36:08;20.10;;;2.85;;
48076;SDS011;33854;57.708;12.008;2023-02-18T00:38:36;22.30;;;3.03;;
48076;SDS011;33854;57.708;12.008;2023-02-18T00:41:02;12.00;;;2.17;;
48076;SDS011;33854;57.708;12.008;2023-02-18T00:43:28;15.60;;;2.50;;
48076;SDS011;33854;57.708;12.008;2023-02-18T00:45:54;13.80;;;2.20;;
48076;SDS011;33854;57.708;12.008;2023-02-18T00:48:19;21.97;;;2.63;;
48076;SDS011;33854;57.708;12.008;2023-02-18T00:50:45;17.57;;;2.60;;
48076;SDS011;33854;57.708;12.008;2023-02-18T00:53:10;18.02;;;2.72;;
48076;SDS011;33854;57.708;12.008;2023-02-18T00:55:39;14.80;;;2.50;;
48076;SDS011;33854;57.708;12.008;2023-02-18T00:58:06;15.98;;;2.60;;
48076;SDS011;33854;57.708;12.008;2023-02-18T01:00:32;18.40;;;2.70;;
48076;SDS011;33854;57.708;12.008;2023-02-18T01:02:59;15.32;;;2.85;;
48076;SDS011;33854;57.708;12.008;2023-02-18T01:05:24;22.47;;;3.27;;
48076;SDS011;33854;57.708;12.008;2023-02-18T01:07:50;18.63;;;2.20;;
48076;SDS011;33854;57.708;12.008;2023-02-18T01:10:15;18.07;;;2.90;;
48076;SDS011;33854;57.708;12.008;2023-02-18T01:12:41;15.70;;;2.77;;
48076;SDS011;33854;57.708;12.008;2023-02-18T01:15:07;21.10;;;2.57;;
48076;SDS011;33854;57.708;12.008;2023-02-18T01:19:58;13.53;;;1.90;;
48076;SDS011;33854;57.708;12.008;2023-02-18T01:22:25;25.13;;;2.78;;
48076;SDS011;33854;57.708;12.008;2023-02-18T01:24:51;14.57;;;1.98;;
48076;SDS011;33854;57.708;12.008;2023-02-18T01:27:16;18.60;;;2.17;;
48076;SDS011;33854;57.708;12.008;2023-02-18T01:29:42;14.13;;;2.63;;
48076;SDS011;33854;57.708;12.008;2023-02-18T01:32:07;13.37;;;1.87;;
48076;SDS011;33854;57.708;12.008;2023-02-18T01:34:33;13.93;;;1.67;;
48076;SDS011;33854;57.708;12.008;2023-02-18T01:36:58;24.40;;;2.50;;
48076;SDS011;33854;57.708;12.008;2023-02-18T01:39:25;16.13;;;2.53;;
48076;SDS011;33854;57.708;12.008;2023-02-18T01:41:50;15.98;;;3.47;;
48076;SDS011;33854;57.708;12.008;2023-02-18T01:44:17;16.40;;;2.60;;
48076;SDS011;33854;57.708;12.008;2023-02-18T01:46:44;14.15;;;2.30;;
48076;SDS011;33854;57.708;12.008;2023-02-18T01:49:11;15.30;;;2.35;;
48076;SDS011;33854;57.708;12.008;2023-02-18T01:51:42;11.52;;;1.67;;
48076;SDS011;33854;57.708;12.008;2023-02-18T01:54:24;17.00;;;2.30;;
48076;SDS011;33854;57.708;12.008;2023-02-18T01:57:07;15.02;;;2.33;;
48076;SDS011;33854;57.708;12.008;2023-02-18T01:59:53;11.48;;;2.20;;
48076;SDS011;33854;57.708;12.008;2023-02-18T02:02:24;16.10;;;2.17;;
48076;SDS011;33854;57.708;12.008;2023-02-18T02:04:52;15.07;;;1.77;;
48076;SDS011;33854;57.708;12.008;2023-02-18T02:07:19;14.43;;;2.35;;
48076;SDS011;33854;57.708;12.008;2023-02-18T02:09:48;11.85;;;1.73;;
48076;SDS011;33854;57.708;12.008;2023-02-18T02:15:15;14.82;;;2.08;;
48076;SDS011;33854;57.708;12.008;2023-02-18T02:18:12;13.20;;;1.83;;
48076;SDS011;33854;57.708;12.008;2023-02-18T02:34:36;11.70;;;1.70;;
48076;SDS011;33854;57.708;12.008;2023-02-18T02:39:41;11.47;;;1.33;;
48076;SDS011;33854;57.708;12.008;2023-02-18T02:45:00;16.30;;;2.22;;
48076;SDS011;33854;57.708;12.008;2023-02-18T02:50:27;14.20;;;2.47;;
48076;SDS011;33854;57.708;12.008;2023-02-18T02:53:03;10.98;;;1.80;;
48076;SDS011;33854;57.708;12.008;2023-02-18T02:55:35;19.63;;;2.40;;
48076;SDS011;33854;57.708;12.008;2023-02-18T02:58:00;12.70;;;1.60;;
48076;SDS011;33854;57.708;12.008;2023-02-18T03:08:37;11.13;;;1.52;;
48076;SDS011;33854;57.708;12.008;2023-02-18T03:11:10;10.90;;;1.40;;
48076;SDS011;33854;57.708;12.008;2023-02-18T03:13:56;12.65;;;1.73;;
48076;SDS011;33854;57.708;12.008;2023-02-18T03:16:34;14.77;;;1.67;;
48076;SDS011;33854;57.708;12.008;2023-02-18T03:21:28;15.67;;;2.07;;
48076;SDS011;33854;57.708;12.008;2023-02-18T03:24:01;13.70;;;1.75;;
48076;SDS011;33854;57.708;12.008;2023-02-18T03:26:35;15.80;;;1.73;;
48076;SDS011;33854;57.708;12.008;2023-02-18T03:29:03;11.75;;;1.42;;
48076;SDS011;33854;57.708;12.008;2023-02-18T03:31:31;11.70;;;1.70;;
48076;SDS011;33854;57.708;12.008;2023-02-18T03:34:02;14.18;;;2.03;;
48076;SDS011;33854;57.708;12.008;2023-02-18T03:36:32;16.95;;;2.67;;
48076;SDS011;33854;57.708;12.008;2023-02-18T03:39:00;14.88;;;1.60;;
48076;SDS011;33854;57.708;12.008;2023-02-18T03:41:29;16.42;;;2.15;;
48076;SDS011;33854;57.708;12.008;2023-02-18T03:43:58;19.67;;;3.40;;
48076;SDS011;33854;57.708;12.008;2023-02-18T03:46:28;13.27;;;1.77;;
48076;SDS011;33854;57.708;12.008;2023-02-18T03:48:54;15.85;;;1.70;;
48076;SDS011;33854;57.708;12.008;2023-02-18T03:51:19;17.90;;;2.00;;
48076;SDS011;33854;57.708;12.008;2023-02-18T03:53:45;12.73;;;1.85;;
48076;SDS011;33854;57.708;12.008;2023-02-18T03:56:11;15.83;;;2.03;;
48076;SDS011;33854;57.708;12.008;2023-02-18T03:58:37;18.33;;;2.72;;
48076;SDS011;33854;57.708;12.008;2023-02-18T04:01:02;27.20;;;4.30;;
48076;SDS011;33854;57.708;12.008;2023-02-18T04:03:28;14.17;;;2.00;;
48076;SDS011;33854;57.708;12.008;2023-02-18T04:05:53;26.07;;;2.23;;
48076;SDS011;33854;57.708;12.008;2023-02-18T04:08:19;15.30;;;1.80;;
48076;SDS011;33854;57.708;12.008;2023-02-18T04:10:44;8.23;;;1.67;;
48076;SDS011;33854;57.708;12.008;2023-02-18T04:13:10;17.60;;;2.03;;
48076;SDS011;33854;57.708;12.008;2023-02-18T04:15:35;17.23;;;1.83;;
48076;SDS011;33854;57.708;12.008;2023-02-18T04:18:01;16.90;;;2.17;;
48076;SDS011;33854;57.708;12.008;2023-02-18T04:20:26;18.87;;;1.80;;
48076;SDS011;33854;57.708;12.008;2023-02-18T04:22:52;22.13;;;2.10;;
48076;SDS011;33854;57.708;12.008;2023-02-18T04:25:17;15.63;;;1.90;;
48076;SDS011;33854;57.708;12.008;2023-02-18T04:27:42;8.53;;;1.87;;
48076;SDS011;33854;57.708;12.008;2023-02-18T04:30:08;13.37;;;1.63;;
48076;SDS011;33854;57.708;12.008;2023-02-18T04:32:34;23.60;;;1.60;;
48076;SDS011;33854;57.708;12.008;2023-02-18T04:34:59;15.53;;;2.07;;
48076;SDS011;33854;57.708;12.008;2023-02-18T04:37:25;21.57;;;2.33;;
48076;SDS011;33854;57.708;12.008;2023-02-18T04:39:50;17.67;;;2.20;;
48076;SDS011;33854;57.708;12.008;2023-02-18T04:42:15;16.67;;;2.20;;
48076;SDS011;33854;57.708;12.008;2023-02-18T04:44:41;13.30;;;2.07;;
48076;SDS011;33854;57.708;12.008;2023-02-18T04:47:06;12.80;;;2.13;;
48076;SDS011;33854;57.708;12.008;2023-02-18T04:49:33;17.80;;;2.30;;
48076;SDS011;33854;57.708;12.008;2023-02-18T04:51:58;17.43;;;1.87;;
48076;SDS011;33854;57.708;12.008;2023-02-18T04:54:24;17.40;;;2.23;;
48076;SDS011;33854;57.708;12.008;2023-02-18T04:56:49;15.57;;;1.70;;
48076;SDS011;33854;57.708;12.008;2023-02-18T04:59:15;21.13;;;2.17;;
48076;SDS011;33854;57.708;12.008;2023-02-18T05:01:41;13.07;;;1.52;;
48076;SDS011;33854;57.708;12.008;2023-02-18T05:04:06;13.10;;;1.73;;
48076;SDS011;33854;57.708;12.008;2023-02-18T05:06:32;18.97;;;2.17;;
48076;SDS011;33854;57.708;12.008;2023-02-18T05:08:57;16.60;;;2.03;;
48076;SDS011;33854;57.708;12.008;2023-02-18T05:11:23;18.23;;;2.13;;
48076;SDS011;33854;57.708;12.008;2023-02-18T05:13:48;18.43;;;2.23;;
48076;SDS011;33854;57.708;12.008;2023-02-18T05:16:14;9.57;;;2.07;;
48076;SDS011;33854;57.708;12.008;2023-02-18T05:18:39;17.17;;;2.47;;
48076;SDS011;33854;57.708;12.008;2023-02-18T05:21:05;19.07;;;2.10;;
48076;SDS011;33854;57.708;12.008;2023-02-18T05:23:30;22.43;;;2.43;;
48076;SDS011;33854;57.708;12.008;2023-02-18T05:25:56;20.30;;;2.10;;
48076;SDS011;33854;57.708;12.008;2023-02-18T05:28:21;20.30;;;2.60;;
48076;SDS011;33854;57.708;12.008;2023-02-18T05:30:47;19.67;;;1.93;;
48076;SDS011;33854;57.708;12.008;2023-02-18T05:33:12;16.37;;;2.20;;
48076;SDS011;33854;57.708;12.008;2023-02-18T05:35:38;15.63;;;2.00;;
48076;SDS011;33854;57.708;12.008;2023-02-18T05:38:03;16.70;;;2.00;;
48076;SDS011;33854;57.708;12.008;2023-02-18T05:40:29;20.40;;;2.37;;
48076;SDS011;33854;57.708;12.008;2023-02-18T05:42:54;13.93;;;1.67;;
48076;SDS011;33854;57.708;12.008;2023-02-18T05:45:20;25.07;;;2.83;;
48076;SDS011;33854;57.708;12.008;2023-02-18T05:47:45;19.70;;;1.93;;
48076;SDS011;33854;57.708;12.008;2023-02-18T05:50:11;17.40;;;2.30;;
48076;SDS011;33854;57.708;12.008;2023-02-18T05:52:36;17.47;;;2.00;;
48076;SDS011;33854;57.708;12.008;2023-02-18T05:55:02;15.90;;;2.00;;
48076;SDS011;33854;57.708;12.008;2023-02-18T05:57:28;17.55;;;2.15;;
48076;SDS011;33854;57.708;12.008;2023-02-18T05:59:53;16.73;;;1.67;;
48076;SDS011;33854;57.708;12.008;2023-02-18T06:02:19;12.33;;;2.50;;
48076;SDS011;33854;57.708;12.008;2023-02-18T06:04:44;14.60;;;2.20;;
48076;SDS011;33854;57.708;12.008;2023-02-18T06:07:09;13.43;;;2.57;;
48076;SDS011;33854;57.708;12.008;2023-02-18T06:09:35;16.93;;;2.13;;
48076;SDS011;33854;57.708;12.008;2023-02-18T06:12:00;10.83;;;1.60;;
48076;SDS011;33854;57.708;12.008;2023-02-18T06:14:26;13.10;;;1.90;;
48076;SDS011;33854;57.708;12.008;2023-02-18T06:16:51;10.33;;;1.50;;
48076;SDS011;33854;57.708;12.008;2023-02-18T06:19:17;7.27;;;1.40;;
48076;SDS011;33854;57.708;12.008;2023-02-18T06:21:42;13.83;;;1.70;;
48076;SDS011;33854;57.708;12.008;2023-02-18T06:24:07;14.30;;;1.83;;
48076;SDS011;33854;57.708;12.008;2023-02-18T06:26:33;17.07;;;2.93;;
48076;SDS011;33854;57.708;12.008;2023-02-18T06:28:58;18.37;;;2.00;;
48076;SDS011;33854;57.708;12.008;2023-02-18T06:31:24;6.40;;;1.30;;
48076;SDS011;33854;57.708;12.008;2023-02-18T06:33:49;20.10;;;2.80;;
48076;SDS011;33854;57.708;12.008;2023-02-18T06:36:15;24.77;;;2.90;;
48076;SDS011;33854;57.708;12.008;2023-02-18T06:38:41;11.87;;;1.80;;
48076;SDS011;33854;57.708;12.008;2023-02-18T06:41:08;14.55;;;2.13;;
48076;SDS011;33854;57.708;12.008;2023-02-18T06:43:35;14.45;;;2.00;;
48076;SDS011;33854;57.708;12.008;2023-02-18T06:46:01;21.90;;;2.07;;
48076;SDS011;33854;57.708;12.008;2023-02-18T06:50:53;15.15;;;2.47;;
48076;SDS011;33854;57.708;12.008;2023-02-18T06:53:19;16.53;;;2.00;;
48076;SDS011;33854;57.708;12.008;2023-02-18T06:55:44;18.80;;;1.70;;
48076;SDS011;33854;57.708;12.008;2023-02-18T06:58:11;24.73;;;3.50;;
48076;SDS011;33854;57.708;12.008;2023-02-18T07:00:37;14.70;;;1.77;;
48076;SDS011;33854;57.708;12.008;2023-02-18T07:03:03;13.07;;;1.80;;
48076;SDS011;33854;57.708;12.008;2023-02-18T07:05:29;13.63;;;1.90;;
48076;SDS011;33854;57.708;12.008;2023-02-18T07:07:54;16.40;;;2.72;;
48076;SDS011;33854;57.708;12.008;2023-02-18T07:10:20;12.47;;;1.40;;
48076;SDS011;33854;57.708;12.008;2023-02-18T07:12:46;20.50;;;1.53;;
48076;SDS011;33854;57.708;12.008;2023-02-18T07:15:11;16.83;;;1.70;;
48076;SDS011;33854;57.708;12.008;2023-02-18T07:17:37;12.43;;;1.93;;
48076;SDS011;33854;57.708;12.008;2023-02-18T07:20:02;11.00;;;2.23;;
48076;SDS011;33854;57.708;12.008;2023-02-18T07:22:29;19.27;;;1.67;;
48076;SDS011;33854;57.708;12.008;2023-02-18T07:24:54;21.23;;;2.00;;
48076;SDS011;33854;57.708;12.008;2023-02-18T07:27:20;14.57;;;2.00;;
48076;SDS011;33854;57.708;12.008;2023-02-18T07:29:46;21.95;;;2.53;;
48076;SDS011;33854;57.708;12.008;2023-02-18T07:32:12;15.83;;;2.57;;
48076;SDS011;33854;57.708;12.008;2023-02-18T07:34:39;11.18;;;1.92;;
48076;SDS011;33854;57.708;12.008;2023-02-18T07:37:04;16.10;;;1.93;;
48076;SDS011;33854;57.708;12.008;2023-02-18T07:39:40;14.85;;;1.48;;
48076;SDS011;33854;57.708;12.008;2023-02-18T07:42:07;12.65;;;1.60;;
48076;SDS011;33854;57.708;12.008;2023-02-18T07:44:33;10.88;;;1.50;;
48076;SDS011;33854;57.708;12.008;2023-02-18T07:47:00;13.43;;;1.50;;
48076;SDS011;33854;57.708;12.008;2023-02-18T07:49:27;17.17;;;2.20;;
48076;SDS011;33854;57.708;12.008;2023-02-18T07:51:53;15.47;;;1.97;;
48076;SDS011;33854;57.708;12.008;2023-02-18T07:54:18;15.93;;;1.87;;
48076;SDS011;33854;57.708;12.008;2023-02-18T07:56:44;9.43;;;1.10;;
48076;SDS011;33854;57.708;12.008;2023-02-18T07:59:10;13.13;;;1.90;;
48076;SDS011;33854;57.708;12.008;2023-02-18T08:01:37;14.02;;;2.22;;
48076;SDS011;33854;57.708;12.008;2023-02-18T08:04:03;15.57;;;2.03;;
48076;SDS011;33854;57.708;12.008;2023-02-18T08:06:30;18.40;;;2.53;;
48076;SDS011;33854;57.708;12.008;2023-02-18T08:09:01;16.67;;;2.28;;
48076;SDS011;33854;57.708;12.008;2023-02-18T08:11:28;10.48;;;1.55;;
48076;SDS011;33854;57.708;12.008;2023-02-18T08:13:53;18.00;;;2.37;;
48076;SDS011;33854;57.708;12.008;2023-02-18T08:16:19;19.50;;;1.97;;
48076;SDS011;33854;57.708;12.008;2023-02-18T08:18:46;6.10;;;1.27;;
48076;SDS011;33854;57.708;12.008;2023-02-18T08:21:13;9.85;;;1.88;;
48076;SDS011;33854;57.708;12.008;2023-02-18T08:23:40;10.32;;;1.33;;
48076;SDS011;33854;57.708;12.008;2023-02-18T08:26:05;9.00;;;1.40;;
48076;SDS011;33854;57.708;12.008;2023-02-18T08:28:30;12.20;;;1.40;;
48076;SDS011;33854;57.708;12.008;2023-02-18T08:30:56;11.30;;;1.30;;
48076;SDS011;33854;57.708;12.008;2023-02-18T08:33:22;11.07;;;1.47;;
48076;SDS011;33854;57.708;12.008;2023-02-18T08:35:49;15.25;;;1.70;;
48076;SDS011;33854;57.708;12.008;2023-02-18T08:38:16;9.75;;;1.10;;
48076;SDS011;33854;57.708;12.008;2023-02-18T08:40:41;9.00;;;1.40;;
48076;SDS011;33854;57.708;12.008;2023-02-18T08:43:07;17.63;;;1.30;;
48076;SDS011;33854;57.708;12.008;2023-02-18T08:45:33;13.00;;;1.97;;
48076;SDS011;33854;57.708;12.008;2023-02-18T08:47:58;18.53;;;1.90;;
48076;SDS011;33854;57.708;12.008;2023-02-18T08:50:24;15.30;;;1.97;;
48076;SDS011;33854;57.708;12.008;2023-02-18T08:52:51;10.82;;;1.42;;
48076;SDS011;33854;57.708;12.008;2023-02-18T08:55:17;12.20;;;1.80;;
48076;SDS011;33854;57.708;12.008;2023-02-18T08:57:45;10.20;;;1.20;;
48076;SDS011;33854;57.708;12.008;2023-02-18T09:00:14;11.68;;;1.35;;
48076;SDS011;33854;57.708;12.008;2023-02-18T09:02:40;8.38;;;1.23;;
48076;SDS011;33854;57.708;12.008;2023-02-18T09:05:06;13.17;;;1.57;;
48076;SDS011;33854;57.708;12.008;2023-02-18T09:07:33;7.25;;;0.93;;
48076;SDS011;33854;57.708;12.008;2023-02-18T09:09:59;15.90;;;1.67;;
48076;SDS011;33854;57.708;12.008;2023-02-18T09:12:25;10.10;;;1.47;;
48076;SDS011;33854;57.708;12.008;2023-02-18T09:14:50;15.27;;;1.77;;
48076;SDS011;33854;57.708;12.008;2023-02-18T09:17:16;12.13;;;1.43;;
48076;SDS011;33854;57.708;12.008;2023-02-18T09:19:41;9.33;;;1.83;;
48076;SDS011;33854;57.708;12.008;2023-02-18T09:22:06;9.10;;;0.80;;
48076;SDS011;33854;57.708;12.008;2023-02-18T09:24:36;12.23;;;1.60;;
48076;SDS011;33854;57.708;12.008;2023-02-18T09:27:02;9.10;;;1.50;;
48076;SDS011;33854;57.708;12.008;2023-02-18T09:29:28;7.17;;;1.43;;
48076;SDS011;33854;57.708;12.008;2023-02-18T09:31:54;10.93;;;2.17;;
48076;SDS011;33854;57.708;12.008;2023-02-18T09:34:19;13.23;;;2.10;;
48076;SDS011;33854;57.708;12.008;2023-02-18T09:36:44;9.17;;;1.63;;
48076;SDS011;33854;57.708;12.008;2023-02-18T09:39:10;18.10;;;2.37;;
48076;SDS011;33854;57.708;12.008;2023-02-18T09:47:24;11.27;;;1.55;;
48076;SDS011;33854;57.708;12.008;2023-02-18T09:49:31;10.32;;;1.10;;
48076;SDS011;33854;57.708;12.008;2023-02-18T09:52:21;10.32;;;1.48;;
48076;SDS011;33854;57.708;12.008;2023-02-18T09:54:58;8.27;;;1.00;;
48076;SDS011;33854;57.708;12.008;2023-02-18T10:00:03;16.00;;;2.03;;
48076;SDS011;33854;57.708;12.008;2023-02-18T10:02:35;17.73;;;1.65;;
48076;SDS011;33854;57.708;12.008;2023-02-18T10:05:02;12.55;;;2.30;;
48076;SDS011;33854;57.708;12.008;2023-02-18T10:07:29;9.32;;;2.08;;
48076;SDS011;33854;57.708;12.008;2023-02-18T10:09:57;13.80;;;2.00;;
48076;SDS011;33854;57.708;12.008;2023-02-18T10:12:29;12.90;;;1.98;;
48076;SDS011;33854;57.708;12.008;2023-02-18T10:15:00;14.20;;;1.80;;
48076;SDS011;33854;57.708;12.008;2023-02-18T10:17:27;15.27;;;1.70;;
48076;SDS011;33854;57.708;12.008;2023-02-18T10:19:56;14.20;;;1.45;;
48076;SDS011;33854;57.708;12.008;2023-02-18T10:24:50;14.43;;;1.80;;
48076;SDS011;33854;57.708;12.008;2023-02-18T10:27:20;8.48;;;1.20;;
48076;SDS011;33854;57.708;12.008;2023-02-18T10:32:42;14.05;;;1.73;;
48076;SDS011;33854;57.708;12.008;2023-02-18T10:38:07;10.90;;;1.60;;
48076;SDS011;33854;57.708;12.008;2023-02-18T10:51:55;10.40;;;1.20;;
48076;SDS011;33854;57.708;12.008;2023-02-18T10:54:26;8.52;;;1.30;;
48076;SDS011;33854;57.708;12.008;2023-02-18T10:56:52;10.88;;;1.05;;
48076;SDS011;33854;57.708;12.008;2023-02-18T10:59:33;12.77;;;1.67;;
48076;SDS011;33854;57.708;12.008;2023-02-18T11:01:59;8.32;;;0.82;;
48076;SDS011;33854;57.708;12.008;2023-02-18T11:04:35;8.60;;;1.15;;
48076;SDS011;33854;57.708;12.008;2023-02-18T11:07:04;10.20;;;1.42;;
48076;SDS011;33854;57.708;12.008;2023-02-18T11:09:41;9.05;;;1.15;;
48076;SDS011;33854;57.708;12.008;2023-02-18T11:12:25;11.02;;;1.27;;
48076;SDS011;33854;57.708;12.008;2023-02-18T11:17:34;8.03;;;1.33;;
48076;SDS011;33854;57.708;12.008;2023-02-18T11:22:57;8.77;;;0.85;;
48076;SDS011;33854;57.708;12.008;2023-02-18T11:25:35;9.02;;;0.80;;
48076;SDS011;33854;57.708;12.008;2023-02-18T11:30:42;9.57;;;1.20;;
48076;SDS011;33854;57.708;12.008;2023-02-18T11:35:54;9.90;;;0.93;;
48076;SDS011;33854;57.708;12.008;2023-02-18T11:41:19;9.45;;;0.98;;
48076;SDS011;33854;57.708;12.008;2023-02-18T11:43:57;7.10;;;0.93;;
48076;SDS011;33854;57.708;12.008;2023-02-18T11:46:24;6.60;;;1.23;;
48076;SDS011;33854;57.708;12.008;2023-02-18T11:48:51;10.73;;;0.98;;
48076;SDS011;33854;57.708;12.008;2023-02-18T11:51:18;4.88;;;0.70;;
48076;SDS011;33854;57.708;12.008;2023-02-18T11:54:00;5.43;;;0.68;;
48076;SDS011;33854;57.708;12.008;2023-02-18T11:56:31;9.20;;;0.93;;
48076;SDS011;33854;57.708;12.008;2023-02-18T11:58:59;7.28;;;0.98;;
48076;SDS011;33854;57.708;12.008;2023-02-18T12:01:35;5.10;;;0.60;;
48076;SDS011;33854;57.708;12.008;2023-02-18T12:04:17;5.63;;;0.60;;
48076;SDS011;33854;57.708;12.008;2023-02-18T12:06:49;3.33;;;0.65;;
48076;SDS011;33854;57.708;12.008;2023-02-18T12:09:34;3.60;;;0.80;;
48076;SDS011;33854;57.708;12.008;2023-02-18T12:12:05;5.68;;;1.00;;
48076;SDS011;33854;57.708;12.008;2023-02-18T12:14:37;5.18;;;0.90;;
48076;SDS011;33854;57.708;12.008;2023-02-18T12:22:41;4.03;;;0.70;;
48076;SDS011;33854;57.708;12.008;2023-02-18T12:25:14;2.78;;;0.45;;
48076;SDS011;33854;57.708;12.008;2023-02-18T12:28:07;1.67;;;0.50;;
48076;SDS011;33854;57.708;12.008;2023-02-18T12:30:56;3.97;;;0.55;;
48076;SDS011;33854;57.708;12.008;2023-02-18T12:33:41;9.27;;;1.13;;
48076;SDS011;33854;57.708;12.008;2023-02-18T12:39:44;3.63;;;0.57;;
48076;SDS011;33854;57.708;12.008;2023-02-18T12:42:23;1.67;;;0.30;;
48076;SDS011;33854;57.708;12.008;2023-02-18T12:50:51;2.78;;;0.65;;
48076;SDS011;33854;57.708;12.008;2023-02-18T13:18:00;6.23;;;0.80;;
48076;SDS011;33854;57.708;12.008;2023-02-18T13:20:34;3.45;;;0.60;;
48076;SDS011;33854;57.708;12.008;2023-02-18T13:23:06;5.40;;;0.70;;
48076;SDS011;33854;57.708;12.008;2023-02-18T13:25:42;3.30;;;0.30;;
48076;SDS011;33854;57.708;12.008;2023-02-18T13:39:05;3.05;;;0.55;;
48076;SDS011;33854;57.708;12.008;2023-02-18T13:41:37;3.53;;;0.47;;
48076;SDS011;33854;57.708;12.008;2023-02-18T13:44:46;4.38;;;0.45;;
48076;SDS011;33854;57.708;12.008;2023-02-18T13:46:53;1.95;;;0.50;;
48076;SDS011;33854;57.708;12.008;2023-02-18T13:49:23;7.28;;;0.93;;
48076;SDS011;33854;57.708;12.008;2023-02-18T13:51:56;3.88;;;0.80;;
48076;SDS011;33854;57.708;12.008;2023-02-18T13:54:42;4.57;;;0.80;;
48076;SDS011;33854;57.708;12.008;2023-02-18T13:57:18;3.08;;;0.75;;
48076;SDS011;33854;57.708;12.008;2023-02-18T14:04:55;3.47;;;0.57;;
48076;SDS011;33854;57.708;12.008;2023-02-18T14:07:43;4.57;;;0.70;;
48076;SDS011;33854;57.708;12.008;2023-02-18T14:25:54;6.97;;;0.50;;
48076;SDS011;33854;57.708;12.008;2023-02-18T14:50:52;2.13;;;0.30;;
48076;SDS011;33854;57.708;12.008;2023-02-18T14:53:19;6.83;;;0.63;;
48076;SDS011;33854;57.708;12.008;2023-02-18T14:56:02;1.98;;;0.52;;
48076;SDS011;33854;57.708;12.008;2023-02-18T14:58:36;3.65;;;0.50;;
48076;SDS011;33854;57.708;12.008;2023-02-18T15:01:06;6.03;;;0.85;;
48076;SDS011;33854;57.708;12.008;2023-02-18T15:03:40;2.83;;;0.28;;
48076;SDS011;33854;57.708;12.008;2023-02-18T15:06:20;0.73;;;0.47;;
48076;SDS011;33854;57.708;12.008;2023-02-18T15:08:48;3.22;;;0.68;;
48076;SDS011;33854;57.708;12.008;2023-02-18T15:11:13;8.53;;;1.03;;
48076;SDS011;33854;57.708;12.008;2023-02-18T15:13:41;2.08;;;0.43;;
48076;SDS011;33854;57.708;12.008;2023-02-18T15:16:17;2.17;;;0.50;;
48076;SDS011;33854;57.708;12.008;2023-02-18T15:18:50;3.15;;;0.47;;
48076;SDS011;33854;57.708;12.008;2023-02-18T15:21:36;4.05;;;0.47;;
48076;SDS011;33854;57.708;12.008;2023-02-18T15:24:37;4.05;;;0.60;;
48076;SDS011;33854;57.708;12.008;2023-02-18T15:26:59;4.68;;;0.82;;
48076;SDS011;33854;57.708;12.008;2023-02-18T15:29:27;2.13;;;0.30;;
48076;SDS011;33854;57.708;12.008;2023-02-18T15:31:58;2.58;;;0.30;;
48076;SDS011;33854;57.708;12.008;2023-02-18T15:37:03;23.92;;;5.82;;
48076;SDS011;33854;57.708;12.008;2023-02-18T15:39:31;14.13;;;4.63;;
48076;SDS011;33854;57.708;12.008;2023-02-18T15:42:01;6.32;;;1.58;;
48076;SDS011;33854;57.708;12.008;2023-02-18T15:44:33;3.78;;;0.95;;
48076;SDS011;33854;57.708;12.008;2023-02-18T15:47:04;7.00;;;2.05;;
48076;SDS011;33854;57.708;12.008;2023-02-18T15:49:32;4.68;;;0.70;;
48076;SDS011;33854;57.708;12.008;2023-02-18T15:51:59;4.38;;;0.45;;
48076;SDS011;33854;57.708;12.008;2023-02-18T15:54:26;4.55;;;0.35;;
48076;SDS011;33854;57.708;12.008;2023-02-18T15:56:52;5.18;;;0.50;;
48076;SDS011;33854;57.708;12.008;2023-02-18T16:01:50;3.83;;;0.82;;
48076;SDS011;33854;57.708;12.008;2023-02-18T16:04:19;5.25;;;0.55;;
48076;SDS011;33854;57.708;12.008;2023-02-18T16:06:50;5.68;;;0.60;;
48076;SDS011;33854;57.708;12.008;2023-02-18T16:09:31;4.55;;;0.77;;
48076;SDS011;33854;57.708;12.008;2023-02-18T16:11:58;5.47;;;0.50;;
48076;SDS011;33854;57.708;12.008;2023-02-18T16:14:34;5.28;;;0.60;;
48076;SDS011;33854;57.708;12.008;2023-02-18T16:17:17;8.77;;;0.80;;
48076;SDS011;33854;57.708;12.008;2023-02-18T16:19:50;7.30;;;1.05;;
48076;SDS011;33854;57.708;12.008;2023-02-18T16:24:54;2.60;;;0.80;;
48076;SDS011;33854;57.708;12.008;2023-02-18T16:27:27;4.35;;;1.00;;
48076;SDS011;33854;57.708;12.008;2023-02-18T16:29:58;1.38;;;0.45;;
48076;SDS011;33854;57.708;12.008;2023-02-18T16:32:25;5.45;;;1.02;;
48076;SDS011;33854;57.708;12.008;2023-02-18T16:34:51;7.00;;;1.60;;
48076;SDS011;33854;57.708;12.008;2023-02-18T16:37:16;14.00;;;0.87;;
48076;SDS011;33854;57.708;12.008;2023-02-18T16:40:00;5.47;;;0.93;;
48076;SDS011;33854;57.708;12.008;2023-02-18T16:42:26;4.90;;;0.97;;
48076;SDS011;33854;57.708;12.008;2023-02-18T16:44:51;9.27;;;0.93;;
48076;SDS011;33854;57.708;12.008;2023-02-18T16:47:17;6.00;;;1.10;;
48076;SDS011;33854;57.708;12.008;2023-02-18T16:49:44;4.57;;;1.27;;
48076;SDS011;33854;57.708;12.008;2023-02-18T16:52:12;4.70;;;1.15;;
48076;SDS011;33854;57.708;12.008;2023-02-18T16:54:41;8.00;;;1.38;;
48076;SDS011;33854;57.708;12.008;2023-02-18T16:57:08;9.68;;;1.60;;
48076;SDS011;33854;57.708;12.008;2023-02-18T16:59:34;7.43;;;2.35;;
48076;SDS011;33854;57.708;12.008;2023-02-18T17:02:00;5.00;;;1.57;;
48076;SDS011;33854;57.708;12.008;2023-02-18T17:04:26;3.17;;;1.07;;
48076;SDS011;33854;57.708;12.008;2023-02-18T17:06:51;6.20;;;1.53;;
48076;SDS011;33854;57.708;12.008;2023-02-18T17:09:18;4.30;;;1.50;;
48076;SDS011;33854;57.708;12.008;2023-02-18T17:11:46;12.35;;;1.95;;
48076;SDS011;33854;57.708;12.008;2023-02-18T17:14:14;6.10;;;1.40;;
48076;SDS011;33854;57.708;12.008;2023-02-18T17:16:44;9.70;;;1.80;;
48076;SDS011;33854;57.708;12.008;2023-02-18T17:19:14;9.55;;;2.42;;
48076;SDS011;33854;57.708;12.008;2023-02-18T17:21:40;10.75;;;2.08;;
48076;SDS011;33854;57.708;12.008;2023-02-18T17:24:10;6.20;;;1.90;;
48076;SDS011;33854;57.708;12.008;2023-02-18T17:26:36;15.07;;;2.47;;
48076;SDS011;33854;57.708;12.008;2023-02-18T17:29:02;12.40;;;1.83;;
48076;SDS011;33854;57.708;12.008;2023-02-18T17:31:29;9.20;;;1.95;;
48076;SDS011;33854;57.708;12.008;2023-02-18T17:34:00;8.85;;;1.85;;
48076;SDS011;33854;57.708;12.008;2023-02-18T17:36:28;10.52;;;2.05;;
48076;SDS011;33854;57.708;12.008;2023-02-18T17:38:54;7.07;;;1.57;;